createdAt,value
2018-12-06T00:02:20.459Z,2.63
2018-12-06T00:04:48.955Z,2.50
2018-12-06T00:07:17.518Z,151.87
2018-12-06T00:09:46.153Z,34.87
2018-12-06T00:12:14.918Z,47.10
2018-12-06T00:14:43.419Z,44.67
2018-12-06T00:17:11.935Z,39.30
2018-12-06T00:19:40.485Z,32.73
2018-12-06T00:22:08.981Z,32.40
2018-12-06T00:24:37.492Z,28.43
2018-12-06T00:27:06.167Z,27.73
2018-12-06T00:29:34.663Z,29.30
2018-12-06T00:32:03.174Z,27.37
2018-12-06T00:34:31.811Z,29.03
2018-12-06T00:37:00.460Z,38.97
2018-12-06T00:39:28.960Z,36.80
2018-12-06T00:41:57.519Z,36.80
2018-12-06T00:44:26.048Z,38.37
2018-12-06T00:46:54.541Z,34.57
2018-12-06T00:49:23.026Z,31.80
2018-12-06T00:51:51.534Z,28.87
2018-12-06T00:54:20.111Z,29.27
2018-12-06T00:56:48.611Z,27.57
2018-12-06T00:59:17.235Z,26.23
2018-12-06T01:01:45.830Z,24.43
2018-12-06T01:04:14.583Z,23.30
2018-12-06T01:06:43.100Z,22.73
2018-12-06T01:09:11.691Z,22.17
2018-12-06T01:11:40.406Z,20.50
2018-12-06T01:14:08.908Z,20.47
2018-12-06T01:16:37.399Z,18.63
2018-12-06T01:19:05.911Z,17.60
2018-12-06T01:21:34.419Z,16.80
2018-12-06T01:24:02.951Z,16.73
2018-12-06T01:26:31.479Z,16.40
2018-12-06T01:29:00.106Z,14.90
2018-12-06T01:31:28.755Z,14.43
2018-12-06T01:33:57.299Z,13.33
2018-12-06T01:36:25.798Z,12.80
2018-12-06T01:38:54.455Z,13.03
2018-12-06T01:41:22.947Z,12.50
2018-12-06T01:43:51.579Z,12.13
2018-12-06T01:46:20.359Z,11.43
2018-12-06T01:48:48.856Z,11.33
2018-12-06T01:51:17.343Z,11.07
2018-12-06T01:53:45.839Z,11.03
2018-12-06T01:56:14.336Z,9.97
2018-12-06T01:58:42.834Z,10.60
2018-12-06T02:01:11.363Z,9.00
2018-12-06T02:03:39.915Z,9.90
2018-12-06T02:06:08.405Z,9.10
2018-12-06T02:08:37.048Z,8.13
2018-12-06T02:11:05.560Z,8.70
2018-12-06T02:13:34.179Z,8.60
2018-12-06T02:16:02.806Z,8.40
2018-12-06T02:18:31.443Z,7.90
2018-12-06T02:20:59.999Z,7.03
2018-12-06T02:23:28.743Z,7.30
2018-12-06T02:25:57.259Z,7.60
2018-12-06T02:28:26.080Z,7.63
2018-12-06T02:30:54.575Z,6.93
2018-12-06T02:33:23.106Z,6.60
2018-12-06T02:35:51.620Z,6.40
2018-12-06T02:38:20.252Z,6.47
2018-12-06T02:40:48.743Z,6.20
2018-12-06T02:43:17.548Z,6.40
2018-12-06T02:45:46.059Z,6.30
2018-12-06T02:48:14.555Z,5.60
2018-12-06T02:50:43.154Z,5.50
2018-12-06T02:53:38.171Z,5.20
2018-12-06T02:56:06.683Z,4.27
2018-12-06T02:58:35.209Z,4.90
2018-12-06T03:01:03.893Z,5.20
2018-12-06T03:03:32.416Z,5.03
2018-12-06T03:06:01.060Z,5.23
2018-12-06T03:08:29.575Z,4.93
2018-12-06T03:10:58.143Z,4.37
2018-12-06T03:13:26.666Z,4.07
2018-12-06T03:15:55.211Z,4.30
2018-12-06T03:18:23.727Z,4.33
2018-12-06T03:20:52.251Z,4.03
2018-12-06T03:23:20.867Z,3.83
2018-12-06T03:25:49.357Z,4.07
2018-12-06T03:28:17.889Z,4.37
2018-12-06T03:30:46.401Z,3.80
2018-12-06T03:33:14.905Z,4.10
2018-12-06T03:35:43.580Z,3.97
2018-12-06T03:38:12.136Z,3.50
2018-12-06T03:40:40.722Z,3.30
2018-12-06T03:43:09.400Z,3.73
2018-12-06T03:45:37.912Z,3.37
2018-12-06T03:48:06.420Z,3.27
2018-12-06T03:50:35.055Z,2.73
2018-12-06T03:53:03.567Z,2.97
2018-12-06T03:55:32.233Z,2.77
2018-12-06T03:58:00.731Z,3.10
2018-12-06T04:00:29.232Z,3.00
2018-12-06T04:02:57.746Z,3.00
2018-12-06T04:05:26.251Z,3.00
2018-12-06T04:07:54.788Z,2.70
2018-12-06T04:10:23.288Z,2.90
2018-12-06T04:12:52.035Z,3.10
2018-12-06T04:15:20.543Z,2.33
2018-12-06T04:17:49.028Z,2.40
2018-12-06T04:20:17.651Z,2.70
2018-12-06T04:22:46.144Z,2.40
2018-12-06T04:25:14.756Z,2.37
2018-12-06T04:27:43.434Z,2.43
2018-12-06T04:30:11.987Z,2.30
2018-12-06T04:32:40.476Z,2.00
2018-12-06T04:35:09.011Z,2.30
2018-12-06T04:37:37.511Z,1.97
2018-12-06T04:40:06.147Z,1.93
2018-12-06T04:42:34.642Z,2.20
2018-12-06T04:45:03.440Z,1.77
2018-12-06T04:47:32.047Z,2.10
2018-12-06T04:50:00.551Z,2.00
2018-12-06T04:52:29.044Z,1.67
2018-12-06T04:54:57.563Z,1.53
2018-12-06T04:57:26.052Z,2.27
2018-12-06T04:59:54.647Z,2.30
2018-12-06T05:02:23.311Z,1.63
2018-12-06T05:04:51.888Z,1.90
2018-12-06T05:07:20.383Z,1.50
2018-12-06T05:09:48.863Z,1.57
2018-12-06T05:12:17.375Z,2.00
2018-12-06T05:14:45.954Z,1.50
2018-12-06T05:17:14.567Z,1.70
2018-12-06T05:19:43.325Z,1.70
2018-12-06T05:22:11.819Z,1.30
2018-12-06T05:24:40.319Z,1.50
2018-12-06T05:27:08.947Z,1.70
2018-12-06T05:29:37.441Z,1.30
2018-12-06T05:32:06.076Z,1.50
2018-12-06T05:34:34.741Z,1.40
2018-12-06T05:37:03.247Z,1.27
2018-12-06T05:39:31.752Z,1.40
2018-12-06T05:42:00.227Z,1.53
2018-12-06T05:44:28.723Z,1.40
2018-12-06T05:46:57.217Z,1.10
2018-12-06T05:49:25.955Z,1.30
2018-12-06T05:51:54.483Z,1.40
2018-12-06T05:54:22.975Z,1.30
2018-12-06T05:56:51.614Z,1.00
2018-12-06T05:59:20.116Z,1.23
2018-12-06T06:01:48.623Z,1.30
2018-12-06T06:04:17.123Z,1.03
2018-12-06T06:06:45.943Z,1.13
2018-12-06T06:09:14.559Z,1.20
2018-12-06T06:11:43.055Z,1.27
2018-12-06T06:14:11.549Z,1.20
2018-12-06T06:16:40.063Z,1.00
2018-12-06T06:19:08.711Z,1.17
2018-12-06T06:21:37.215Z,0.90
2018-12-06T06:24:05.707Z,1.00
2018-12-06T06:26:34.335Z,0.90
2018-12-06T06:29:02.943Z,1.10
2018-12-06T06:31:31.423Z,1.07
2018-12-06T06:33:59.936Z,1.03
2018-12-06T06:36:28.742Z,1.10
2018-12-06T06:38:57.244Z,1.00
2018-12-06T06:41:25.779Z,1.10
2018-12-06T06:43:54.267Z,0.97
2018-12-06T06:46:22.760Z,0.97
2018-12-06T06:48:51.491Z,1.10
2018-12-06T06:51:19.987Z,1.10
2018-12-06T06:53:48.496Z,1.10
2018-12-06T06:56:16.991Z,0.90
2018-12-06T06:58:45.515Z,0.80
2018-12-06T07:01:14.021Z,0.70
2018-12-06T07:03:42.507Z,1.00
2018-12-06T07:06:11.047Z,1.10
2018-12-06T07:08:39.557Z,0.90
2018-12-06T07:11:08.083Z,0.73
2018-12-06T07:13:36.591Z,0.80
2018-12-06T07:16:05.123Z,0.70
2018-12-06T07:18:33.611Z,0.97
2018-12-06T07:21:02.159Z,1.10
2018-12-06T07:23:30.655Z,0.83
2018-12-06T07:25:59.187Z,1.00
2018-12-06T07:28:27.999Z,0.90
2018-12-06T07:30:56.655Z,0.70
2018-12-06T07:33:25.163Z,0.87
2018-12-06T07:35:53.704Z,1.00
2018-12-06T07:38:22.377Z,0.80
2018-12-06T07:40:50.895Z,0.70
2018-12-06T07:43:19.386Z,0.83
2018-12-06T07:45:47.921Z,0.83
2018-12-06T07:48:16.430Z,0.70
2018-12-06T07:50:44.911Z,0.80
2018-12-06T07:53:13.537Z,0.90
2018-12-06T07:55:42.029Z,0.70
2018-12-06T07:58:10.559Z,0.70
2018-12-06T08:00:39.076Z,0.87
2018-12-06T08:03:07.570Z,0.90
2018-12-06T08:05:36.084Z,1.00
2018-12-06T08:08:04.753Z,0.90
2018-12-06T08:10:33.378Z,1.10
2018-12-06T08:13:01.894Z,1.00
2018-12-06T08:15:30.531Z,0.70
2018-12-06T08:17:59.032Z,1.00
2018-12-06T08:20:27.651Z,0.90
2018-12-06T08:22:56.154Z,0.73
2018-12-06T08:25:24.815Z,0.80
2018-12-06T08:27:53.319Z,0.80
2018-12-06T08:30:21.853Z,0.83
2018-12-06T08:32:50.378Z,0.80
2018-12-06T08:35:19.066Z,0.80
2018-12-06T08:37:47.575Z,0.60
2018-12-06T08:40:16.078Z,0.70
2018-12-06T08:42:45.894Z,0.80
2018-12-06T08:45:14.727Z,0.80
2018-12-06T08:47:43.223Z,0.80
2018-12-06T08:50:12.083Z,0.77
2018-12-06T08:52:40.583Z,0.90
2018-12-06T08:55:09.103Z,0.90
2018-12-06T08:57:37.591Z,0.90
2018-12-06T09:00:09.231Z,1.00
2018-12-06T09:02:37.847Z,0.90
2018-12-06T09:05:07.272Z,1.13
2018-12-06T09:07:36.469Z,1.20
2018-12-06T09:10:06.399Z,1.20
2018-12-06T09:12:35.047Z,1.10
2018-12-06T09:15:04.015Z,1.40
2018-12-06T09:17:32.535Z,1.30
2018-12-06T09:20:01.018Z,1.30
2018-12-06T09:22:29.511Z,1.10
2018-12-06T09:24:58.070Z,1.63
2018-12-06T09:27:26.663Z,1.40
2018-12-06T09:29:55.347Z,1.40
2018-12-06T09:32:23.847Z,1.30
2018-12-06T09:34:52.343Z,1.10
2018-12-06T09:37:20.851Z,1.30
2018-12-06T09:39:57.183Z,1.30
2018-12-06T09:42:25.840Z,1.20
2018-12-06T09:44:54.511Z,1.20
2018-12-06T09:47:23.185Z,1.20
2018-12-06T09:49:51.708Z,1.30
2018-12-06T09:52:20.241Z,1.40
2018-12-06T09:54:48.774Z,1.30
2018-12-06T09:57:17.277Z,1.83
2018-12-06T09:59:46.913Z,1.80
2018-12-06T10:02:15.830Z,1.70
2018-12-06T10:04:44.471Z,1.60
2018-12-06T10:07:12.980Z,1.73
2018-12-06T10:09:41.488Z,1.80
2018-12-06T10:12:09.991Z,1.50
2018-12-06T10:14:38.544Z,1.50
2018-12-06T10:17:07.035Z,1.90
2018-12-06T10:19:35.538Z,1.60
2018-12-06T10:22:04.079Z,1.70
2018-12-06T10:24:32.732Z,1.80
2018-12-06T10:27:01.227Z,1.57
2018-12-06T10:29:29.731Z,1.60
2018-12-06T10:31:58.431Z,1.73
2018-12-06T10:34:26.928Z,1.80
2018-12-06T10:36:55.501Z,1.53
2018-12-06T10:39:24.131Z,1.77
2018-12-06T10:41:52.631Z,1.90
2018-12-06T10:44:28.863Z,1.77
2018-12-06T10:46:57.404Z,1.40
2018-12-06T10:49:26.171Z,1.70
2018-12-06T10:51:54.936Z,1.40
2018-12-06T10:54:23.481Z,1.50
2018-12-06T10:56:52.031Z,1.50
2018-12-06T11:01:45.639Z,1.50
2018-12-06T11:04:14.143Z,1.63
2018-12-06T11:06:42.649Z,1.60
2018-12-06T11:09:11.275Z,1.60
2018-12-06T11:11:39.788Z,1.90
2018-12-06T11:14:08.292Z,1.63
2018-12-06T11:16:36.791Z,1.37
2018-12-06T11:19:05.308Z,1.30
2018-12-06T11:21:33.935Z,1.50
2018-12-06T11:24:02.458Z,1.57
2018-12-06T11:26:31.088Z,1.50
2018-12-06T11:28:59.625Z,1.70
2018-12-06T11:31:28.120Z,1.60
2018-12-06T11:33:56.768Z,1.23
2018-12-06T11:36:25.278Z,1.57
2018-12-06T11:38:53.770Z,1.30
2018-12-06T11:41:22.273Z,1.73
2018-12-06T11:43:50.937Z,1.80
2018-12-06T11:46:19.455Z,1.70
2018-12-06T11:48:47.939Z,1.30
2018-12-06T11:51:16.477Z,1.40
2018-12-06T11:53:45.143Z,1.73
2018-12-06T11:56:13.655Z,1.50
2018-12-06T11:58:42.144Z,1.70
2018-12-06T12:01:10.687Z,1.37
2018-12-06T12:03:40.448Z,1.50
2018-12-06T12:06:09.118Z,1.50
2018-12-06T12:08:37.867Z,1.17
2018-12-06T12:11:06.543Z,1.50
2018-12-06T12:13:35.222Z,1.37
2018-12-06T12:16:03.795Z,1.50
2018-12-06T12:18:32.300Z,1.50
2018-12-06T12:21:00.803Z,1.50
2018-12-06T12:23:29.531Z,1.57
2018-12-06T12:25:58.060Z,1.40
2018-12-06T12:28:26.599Z,1.50
2018-12-06T12:30:55.086Z,1.50
2018-12-06T12:33:23.715Z,1.30
2018-12-06T12:35:52.217Z,1.27
2018-12-06T12:38:20.712Z,1.37
2018-12-06T12:40:49.513Z,1.40
2018-12-06T12:43:18.004Z,1.87
2018-12-06T12:45:46.503Z,1.50
2018-12-06T12:48:15.028Z,1.53
2018-12-06T12:50:43.641Z,1.57
2018-12-06T12:53:12.331Z,1.47
2018-12-06T12:55:40.819Z,1.73
2018-12-06T12:58:09.367Z,1.40
2018-12-06T13:00:37.870Z,1.40
2018-12-06T13:03:06.403Z,1.60
2018-12-06T13:05:35.037Z,1.40
2018-12-06T13:08:03.551Z,1.47
2018-12-06T13:10:32.043Z,1.77
2018-12-06T13:13:01.749Z,1.53
2018-12-06T13:15:30.715Z,1.43
2018-12-06T13:17:59.240Z,1.50
2018-12-06T13:20:27.743Z,1.70
2018-12-06T13:22:56.247Z,1.60
2018-12-06T13:25:24.748Z,1.60
2018-12-06T13:27:53.238Z,1.60
2018-12-06T13:30:21.735Z,1.40
2018-12-06T13:32:50.247Z,1.53
2018-12-06T13:35:18.783Z,1.60
2018-12-06T13:37:47.393Z,1.50
2018-12-06T13:40:16.007Z,1.30
2018-12-06T13:42:44.515Z,1.47
2018-12-06T13:45:13.003Z,1.60
2018-12-06T13:47:44.463Z,1.40
2018-12-06T13:50:13.845Z,1.40
2018-12-06T13:52:45.509Z,1.67
2018-12-06T13:55:16.882Z,1.77
2018-12-06T13:57:47.615Z,1.63
2018-12-06T14:00:18.614Z,1.50
2018-12-06T14:02:51.369Z,3.40
2018-12-06T14:05:22.575Z,4.60
2018-12-06T14:07:53.759Z,7.20
2018-12-06T14:10:25.806Z,8.73
2018-12-06T14:12:56.816Z,9.40
2018-12-06T14:15:28.519Z,9.80
2018-12-06T14:17:57.113Z,11.07
2018-12-06T14:20:25.651Z,11.23
2018-12-06T14:22:54.147Z,10.50
2018-12-06T14:25:22.651Z,10.90
2018-12-06T14:27:51.167Z,10.83
2018-12-06T14:30:19.808Z,10.43
2018-12-06T14:32:48.404Z,9.50
2018-12-06T14:35:17.029Z,9.47
2018-12-06T14:37:45.575Z,9.40
2018-12-06T14:40:14.075Z,9.03
2018-12-06T14:42:44.155Z,8.73
2018-12-06T14:45:12.875Z,8.30
2018-12-06T14:47:41.376Z,8.83
2018-12-06T14:50:10.002Z,8.80
2018-12-06T14:52:38.511Z,9.37
2018-12-06T14:55:07.403Z,8.30
2018-12-06T14:57:36.074Z,8.53
2018-12-06T15:00:05.223Z,8.60
2018-12-06T15:02:33.844Z,8.20
2018-12-06T15:05:02.347Z,8.10
2018-12-06T15:07:30.875Z,7.77
2018-12-06T15:09:59.509Z,8.03
2018-12-06T15:12:28.012Z,7.50
2018-12-06T15:14:56.518Z,7.27
2018-12-06T15:17:25.015Z,7.20
2018-12-06T15:19:53.663Z,6.63
2018-12-06T15:22:22.385Z,6.40
2018-12-06T15:24:51.116Z,9.77
2018-12-06T15:27:19.851Z,11.23
2018-12-06T15:29:48.495Z,12.53
2018-12-06T15:32:17.917Z,13.03
2018-12-06T15:34:46.427Z,12.30
2018-12-06T15:37:14.939Z,11.70
2018-12-06T15:39:43.587Z,10.53
2018-12-06T15:42:12.235Z,10.27
2018-12-06T15:44:40.723Z,9.17
2018-12-06T15:47:09.228Z,9.97
2018-12-06T15:49:37.718Z,8.60
2018-12-06T15:52:06.215Z,8.37
2018-12-06T15:54:34.718Z,8.40
2018-12-06T15:57:04.000Z,7.70
2018-12-06T15:59:32.492Z,7.53
2018-12-06T16:02:01.011Z,7.57
2018-12-06T16:04:29.528Z,7.00
2018-12-06T16:06:58.027Z,7.07
2018-12-06T16:09:26.647Z,6.87
2018-12-06T16:11:55.155Z,6.43
2018-12-06T16:14:23.780Z,6.43
2018-12-06T16:16:52.280Z,5.63
2018-12-06T16:19:20.932Z,5.70
2018-12-06T16:21:49.443Z,5.20
2018-12-06T16:24:17.952Z,5.50
2018-12-06T16:26:46.450Z,4.77
2018-12-06T16:29:14.949Z,4.43
2018-12-06T16:31:43.558Z,4.30
2018-12-06T16:34:12.287Z,4.40
2018-12-06T16:36:40.787Z,4.80
2018-12-06T16:39:09.295Z,5.20
2018-12-06T16:41:37.921Z,4.90
2018-12-06T16:44:06.580Z,4.20
2018-12-06T16:46:35.356Z,4.10
2018-12-06T16:49:10.104Z,4.27
2018-12-06T16:51:34.714Z,3.33
2018-12-06T16:54:03.228Z,3.80
2018-12-06T16:56:31.732Z,3.60
2018-12-06T16:59:00.390Z,4.10
2018-12-06T17:01:28.875Z,3.30
2018-12-06T17:03:57.375Z,3.23
2018-12-06T17:06:25.854Z,3.70
2018-12-06T17:08:54.365Z,3.20
2018-12-06T17:11:22.975Z,3.50
2018-12-06T17:13:51.467Z,3.60
2018-12-06T17:16:19.967Z,3.47
2018-12-06T17:18:48.479Z,3.17
2018-12-06T17:21:17.075Z,3.17
2018-12-06T17:23:45.586Z,3.33
2018-12-06T17:26:14.216Z,2.83
2018-12-06T17:28:42.707Z,2.93
2018-12-06T17:31:11.203Z,2.83
2018-12-06T17:33:39.710Z,2.60
2018-12-06T17:36:08.427Z,3.10
2018-12-06T17:38:36.915Z,2.50
2018-12-06T17:41:05.728Z,2.90
2018-12-06T17:43:34.227Z,3.00
2018-12-06T17:46:02.731Z,2.80
2018-12-06T17:48:31.366Z,2.70
2018-12-06T17:50:59.938Z,2.90
2018-12-06T17:53:28.435Z,2.90
2018-12-06T17:55:57.191Z,3.40
2018-12-06T17:58:25.695Z,2.70
2018-12-06T18:00:54.220Z,2.73
2018-12-06T18:03:22.727Z,2.70
2018-12-06T18:05:51.219Z,2.53
2018-12-06T18:08:19.763Z,2.87
2018-12-06T18:10:48.514Z,2.50
2018-12-06T18:13:17.020Z,2.50
2018-12-06T18:15:45.855Z,2.90
2018-12-06T18:18:14.367Z,2.87
2018-12-06T18:20:43.011Z,2.20
2018-12-06T18:23:11.819Z,2.60
2018-12-06T18:25:40.317Z,2.17
2018-12-06T18:28:08.971Z,2.23
2018-12-06T18:30:37.607Z,2.40
2018-12-06T18:33:06.103Z,2.47
2018-12-06T18:35:34.602Z,2.37
2018-12-06T18:38:03.124Z,2.30
2018-12-06T18:40:31.607Z,2.27
2018-12-06T18:43:00.112Z,1.90
2018-12-06T18:45:28.639Z,2.17
2018-12-06T18:47:57.278Z,2.40
2018-12-06T18:50:25.810Z,2.40
2018-12-06T18:52:54.307Z,2.60
2018-12-06T18:55:22.991Z,2.00
2018-12-06T18:57:51.609Z,2.30
2018-12-06T19:00:20.143Z,2.20
2018-12-06T19:02:48.643Z,2.00
2018-12-06T19:05:17.143Z,2.10
2018-12-06T19:07:45.712Z,2.10
2018-12-06T19:10:14.450Z,2.03
2018-12-06T19:12:43.104Z,2.00
2018-12-06T19:15:11.616Z,1.80
2018-12-06T19:17:40.135Z,2.10
2018-12-06T19:20:08.799Z,2.77
2018-12-06T19:22:37.353Z,2.27
2018-12-06T19:25:06.172Z,2.27
2018-12-06T19:27:34.716Z,2.27
2018-12-06T19:30:03.583Z,2.33
2018-12-06T19:32:32.099Z,1.97
2018-12-06T19:35:00.615Z,2.10
2018-12-06T19:37:30.706Z,4.37
2018-12-06T19:39:59.367Z,3.63
2018-12-06T19:42:28.886Z,2.90
2018-12-06T19:44:57.387Z,2.93
2018-12-06T19:47:25.891Z,2.80
2018-12-06T19:49:54.389Z,2.70
2018-12-06T19:52:23.191Z,2.73
2018-12-06T19:54:51.696Z,2.70
2018-12-06T19:57:20.215Z,2.90
2018-12-06T19:59:48.707Z,2.77
2018-12-06T20:02:17.251Z,3.00
2018-12-06T20:04:45.747Z,3.20
2018-12-06T20:07:14.257Z,2.90
2018-12-06T20:09:42.815Z,2.80
2018-12-06T20:12:12.240Z,2.57
2018-12-06T20:14:41.159Z,2.73
2018-12-06T20:17:09.939Z,2.67
2018-12-06T20:19:38.430Z,2.70
2018-12-06T20:22:08.287Z,2.93
2018-12-06T20:24:37.237Z,2.70
2018-12-06T20:27:05.883Z,2.43
2018-12-06T20:29:34.424Z,2.90
2018-12-06T20:32:02.939Z,2.40
2018-12-06T20:34:32.640Z,2.20
2018-12-06T20:37:01.355Z,2.27
2018-12-06T20:39:29.852Z,2.47
2018-12-06T20:41:58.363Z,2.40
2018-12-06T20:44:26.871Z,2.70
2018-12-06T20:46:55.612Z,2.67
2018-12-06T20:49:24.143Z,2.10
2018-12-06T20:51:52.769Z,2.43
2018-12-06T20:54:21.267Z,1.90
2018-12-06T20:56:49.835Z,2.00
2018-12-06T20:59:18.367Z,2.00
2018-12-06T21:01:46.875Z,1.73
2018-12-06T21:04:15.379Z,2.23
2018-12-06T21:06:43.963Z,2.40
2018-12-06T21:09:12.453Z,2.00
2018-12-06T21:11:40.956Z,1.73
2018-12-06T21:14:09.519Z,1.60
2018-12-06T21:16:38.011Z,2.03
2018-12-06T21:19:06.645Z,1.73
2018-12-06T21:21:35.136Z,1.93
2018-12-06T21:24:03.657Z,1.93
2018-12-06T21:26:32.140Z,2.00
2018-12-06T21:29:00.659Z,1.70
2018-12-06T21:34:09.180Z,1.80
2018-12-06T21:36:37.779Z,1.63
2018-12-06T21:39:08.459Z,1.80
2018-12-06T21:41:37.086Z,2.00
2018-12-06T21:44:05.709Z,1.60
2018-12-06T21:46:34.337Z,1.50
2018-12-06T21:49:02.978Z,1.70
2018-12-06T21:51:31.624Z,1.90
2018-12-06T21:54:00.168Z,1.50
2018-12-06T21:56:28.755Z,1.90
2018-12-06T21:58:57.440Z,1.60
2018-12-06T22:01:26.919Z,1.50
2018-12-06T22:03:55.561Z,2.00
2018-12-06T22:06:24.171Z,1.80
2018-12-06T22:08:52.961Z,1.67
2018-12-06T22:11:21.493Z,1.50
2018-12-06T22:13:50.031Z,1.30
2018-12-06T22:16:18.659Z,1.70
2018-12-06T22:18:48.270Z,1.63
2018-12-06T22:21:17.800Z,1.80
2018-12-06T22:23:46.352Z,1.50
2018-12-06T22:26:14.895Z,1.60
2018-12-06T22:28:43.507Z,1.50
2018-12-06T22:31:12.066Z,1.93
2018-12-06T22:33:40.658Z,2.53
2018-12-06T22:36:09.205Z,3.27
2018-12-06T22:38:37.755Z,3.93
2018-12-06T22:41:06.342Z,6.00
2018-12-06T22:43:34.903Z,6.33
2018-12-06T22:46:03.608Z,7.50
2018-12-06T22:48:32.235Z,8.83
2018-12-06T22:51:00.879Z,8.80
2018-12-06T22:53:30.515Z,10.10
2018-12-06T22:55:59.078Z,10.13
2018-12-06T22:58:27.668Z,10.40
2018-12-06T23:00:58.983Z,9.87
2018-12-06T23:03:27.850Z,10.60
2018-12-06T23:05:56.484Z,11.00
2018-12-06T23:08:25.361Z,10.43
2018-12-06T23:10:53.931Z,10.90
2018-12-06T23:13:22.489Z,11.07
2018-12-06T23:15:51.056Z,10.77
2018-12-06T23:18:19.583Z,10.33
2018-12-06T23:20:48.167Z,10.43
2018-12-06T23:23:16.907Z,10.57
2018-12-06T23:25:45.587Z,10.63
2018-12-06T23:28:14.166Z,9.77
2018-12-06T23:30:42.881Z,9.43
2018-12-06T23:33:11.432Z,9.00
2018-12-06T23:35:40.027Z,9.03
2018-12-06T23:38:08.731Z,8.90
2018-12-06T23:40:37.315Z,8.37
2018-12-06T23:43:05.975Z,7.80
2018-12-06T23:45:34.707Z,7.23
2018-12-06T23:48:03.413Z,7.87
2018-12-06T23:50:31.984Z,6.97
2018-12-06T23:53:00.576Z,6.73
2018-12-06T23:55:29.647Z,6.67
2018-12-06T23:57:58.280Z,6.83
